logo
Rechercher aéroport 
image banner adimage banner adimage banner ad
image banner ad

ZBAD - Beijing/Daxing

Situé à Beijing, China

ICAO - , IATA - PKX

Données fournies par Airmate  

Information générale

Coordonnées: N39°30'0" E116°24'0"
Élévation : 83 feet MSL.
 
Voir autres Aéroports à Beijing Municipality

Données opérationnelles

Special qualification required
Heure actuelle UTC:
Heure actuelle locale:
Météo
METAR: ZBAD 110530Z 21002MPS 190V280 9999 OVC020 M03/M06 Q1030 NOSIG
TAF: TAF COR ZBAD 110555Z 1106/1206 18003MPS 3000 BR BKN030 TXM02/1107Z TNM06/1122Z TEMPO 1116/1122 1400 TEMPO 1122/1201 0400 FZFG BKN002
Voir NOTAMs / SUP AIP / TFR affectant cet aéroport [VIEW]
Fréquences de communication: [VIEW]

Pistes:

Identifiant RWYQFULongueur (ft)Largeur (ft)SurfaceLDA (ft)
17L173°12467197UNK
35R353°12467197UNK
01L353°11155197UNK
19R173°11155197UNK
11L103°12467197UNK
29R283°12467197UNK
17R173°12467148UNK
35L353°12467148UNK

Coordonnées de l'aéroport

Adresse: Beijing China

Vue satellite de ZBAD